Time,TemperatureF,DewpointF,PressureIn,WindDirection,WindDirectionDegrees,WindSpeedMPH,WindSpeedGustMPH,Humidity,HourlyPrecipIn,Conditions,Clouds,dailyrainin,SoftwareType,DateUTC
2013-12-12 00:00:00,24.9,19.0,30.13,WNW,288,0.0,2.0,78,0.00,,,0.00,Wunderground v.1.15,2013-12-12 05:00:00,
2013-12-12 00:05:00,24.8,18.9,30.12,WNW,288,0.0,2.0,78,0.00,,,0.00,Wunderground v.1.15,2013-12-12 05:05:00,
2013-12-12 00:10:00,24.7,18.8,30.13,WNW,288,0.0,0.0,78,0.00,,,0.00,Wunderground v.1.15,2013-12-12 05:10:00,
2013-12-12 00:15:00,24.6,18.7,30.12,WNW,288,0.0,1.0,78,0.00,,,0.00,Wunderground v.1.15,2013-12-12 05:15:00,
2013-12-12 00:20:00,24.5,18.9,30.12,WNW,302,1.0,2.0,79,0.00,,,0.00,Wunderground v.1.15,2013-12-12 05:20:00,
2013-12-12 00:25:00,24.5,18.9,30.12,WSW,248,1.0,2.0,79,0.00,,,0.00,Wunderground v.1.15,2013-12-12 05:25:00,
2013-12-12 00:35:00,24.4,18.8,30.12,WNW,288,1.0,2.0,79,0.00,,,0.00,Wunderground v.1.15,2013-12-12 05:35:00,
2013-12-12 00:45:00,24.3,18.7,30.13,WNW,284,1.0,2.0,79,0.00,,,0.00,Wunderground v.1.15,2013-12-12 05:45:00,
2013-12-12 00:50:00,24.3,18.7,30.13,WNW,284,1.0,1.0,79,0.00,,,0.00,Wunderground v.1.15,2013-12-12 05:50:00,
2013-12-12 01:00:00,24.2,18.6,30.13,NW,306,1.0,3.0,79,0.00,,,0.00,Wunderground v.1.15,2013-12-12 06:00:00,
2013-12-12 01:05:00,24.1,18.5,30.13,WNW,283,2.0,3.0,79,0.00,,,0.00,Wunderground v.1.15,2013-12-12 06:05:00,
2013-12-12 01:10:00,24.2,18.6,30.13,NW,319,2.0,2.0,79,0.00,,,0.00,Wunderground v.1.15,2013-12-12 06:10:00,
2013-12-12 01:15:00,24.2,18.6,30.13,WSW,246,2.0,2.0,79,0.00,,,0.00,Wunderground v.1.15,2013-12-12 06:15:00,
2013-12-12 01:20:00,24.2,18.6,30.13,West,263,2.0,2.0,79,0.00,,,0.00,Wunderground v.1.15,2013-12-12 06:20:00,
2013-12-12 01:30:00,24.2,18.6,30.14,West,265,2.0,4.0,79,0.00,,,0.00,Wunderground v.1.15,2013-12-12 06:30:00,
2013-12-12 01:35:00,24.2,18.6,30.14,West,271,2.0,4.0,79,0.00,,,0.00,Wunderground v.1.15,2013-12-12 06:35:00,
2013-12-12 01:45:00,24.2,18.6,30.14,West,273,2.0,3.0,79,0.00,,,0.00,Wunderground v.1.15,2013-12-12 06:45:00,
2013-12-12 01:50:00,24.3,18.7,30.14,West,277,2.0,2.0,79,0.00,,,0.00,Wunderground v.1.15,2013-12-12 06:50:00,
2013-12-12 01:55:00,24.2,18.6,30.14,NW,314,2.0,2.0,79,0.00,,,0.00,Wunderground v.1.15,2013-12-12 06:55:00,
2013-12-12 02:05:00,24.1,18.5,30.15,WNW,288,1.0,1.0,79,0.00,,,0.00,Wunderground v.1.15,2013-12-12 07:05:00,
2013-12-12 02:15:00,23.9,18.6,30.15,WNW,287,1.0,1.0,80,0.00,,,0.00,Wunderground v.1.15,2013-12-12 07:15:00,
2013-12-12 02:20:00,23.8,18.5,30.15,WNW,286,1.0,1.0,80,0.00,,,0.00,Wunderground v.1.15,2013-12-12 07:20:00,
2013-12-12 02:30:00,23.7,18.4,30.16,WNW,285,1.0,1.0,80,0.00,,,0.00,Wunderground v.1.15,2013-12-12 07:30:00,
2013-12-12 02:35:00,23.8,18.8,30.16,West,277,1.0,1.0,81,0.00,,,0.00,Wunderground v.1.15,2013-12-12 07:35:00,
2013-12-12 02:45:00,24.2,19.2,30.16,NW,304,2.0,6.0,81,0.00,,,0.00,Wunderground v.1.15,2013-12-12 07:45:00,
2013-12-12 02:50:00,24.3,18.7,30.16,NNW,343,3.0,5.0,79,0.00,,,0.00,Wunderground v.1.15,2013-12-12 07:50:00,
2013-12-12 03:00:00,24.4,18.2,30.16,NNW,337,3.0,3.0,77,0.00,,,0.00,Wunderground v.1.15,2013-12-12 08:00:00,
2013-12-12 03:05:00,24.3,17.8,30.16,NW,323,2.0,5.0,76,0.00,,,0.00,Wunderground v.1.15,2013-12-12 08:05:00,
2013-12-12 03:15:00,24.2,17.4,30.17,NW,305,2.0,3.0,75,0.00,,,0.00,Wunderground v.1.15,2013-12-12 08:15:00,
2013-12-12 03:20:00,24.2,17.4,30.17,NW,304,2.0,2.0,75,0.00,,,0.00,Wunderground v.1.15,2013-12-12 08:20:00,
2013-12-12 03:25:00,24.1,17.3,30.17,West,267,1.0,3.0,75,0.00,,,0.00,Wunderground v.1.15,2013-12-12 08:25:00,
2013-12-12 03:35:00,24.0,17.2,30.17,WNW,290,2.0,2.0,75,0.00,,,0.00,Wunderground v.1.15,2013-12-12 08:35:00,
2013-12-12 03:40:00,24.0,16.9,30.17,West,281,1.0,2.0,74,0.00,,,0.00,Wunderground v.1.15,2013-12-12 08:40:00,
2013-12-12 03:50:00,24.0,16.9,30.17,NNW,327,2.0,2.0,74,0.00,,,0.00,Wunderground v.1.15,2013-12-12 08:50:00,
2013-12-12 04:00:00,24.0,16.9,30.17,West,274,1.0,1.0,74,0.00,,,0.00,Wunderground v.1.15,2013-12-12 09:00:00,
2013-12-12 04:05:00,23.9,16.8,30.17,North,350,1.0,1.0,74,0.00,,,0.00,Wunderground v.1.15,2013-12-12 09:05:00,
2013-12-12 04:15:00,24.0,16.6,30.17,West,273,1.0,1.0,73,0.00,,,0.00,Wunderground v.1.15,2013-12-12 09:15:00,
2013-12-12 04:20:00,23.9,16.5,30.17,WNW,292,1.0,1.0,73,0.00,,,0.00,Wunderground v.1.15,2013-12-12 09:20:00,
2013-12-12 04:30:00,23.9,16.2,30.17,West,274,2.0,2.0,72,0.00,,,0.00,Wunderground v.1.15,2013-12-12 09:30:00,
2013-12-12 04:35:00,23.8,15.8,30.17,NW,321,1.0,2.0,71,0.00,,,0.00,Wunderground v.1.15,2013-12-12 09:35:00,
2013-12-12 04:40:00,23.8,15.8,30.18,NNW,333,1.0,1.0,71,0.00,,,0.00,Wunderground v.1.15,2013-12-12 09:40:00,
2013-12-12 04:50:00,23.7,16.0,30.18,WNW,302,0.0,1.0,72,0.00,,,0.00,Wunderground v.1.15,2013-12-12 09:50:00,
2013-12-12 05:00:00,23.6,15.9,30.19,North,355,1.0,1.0,72,0.00,,,0.00,Wunderground v.1.15,2013-12-12 10:00:00,
2013-12-12 05:10:00,23.5,15.8,30.19,WNW,296,1.0,2.0,72,0.00,,,0.00,Wunderground v.1.15,2013-12-12 10:10:00,
2013-12-12 05:20:00,23.3,15.3,30.19,West,273,1.0,3.0,71,0.00,,,0.00,Wunderground v.1.15,2013-12-12 10:20:00,
2013-12-12 05:25:00,23.3,15.3,30.19,NW,321,1.0,3.0,71,0.00,,,0.00,Wunderground v.1.15,2013-12-12 10:25:00,
2013-12-12 05:35:00,23.1,15.4,30.19,NW,310,1.0,2.0,72,0.00,,,0.00,Wunderground v.1.15,2013-12-12 10:35:00,
2013-12-12 05:45:00,22.9,15.8,30.20,West,271,1.0,2.0,74,0.00,,,0.00,Wunderground v.1.15,2013-12-12 10:45:00,
2013-12-12 05:50:00,22.7,15.7,30.20,West,281,1.0,1.0,74,0.00,,,0.00,Wunderground v.1.15,2013-12-12 10:50:00,
2013-12-12 06:00:00,22.4,15.7,30.20,WSW,243,1.0,2.0,75,0.00,,,0.00,Wunderground v.1.15,2013-12-12 11:00:00,
2013-12-12 06:05:00,22.3,15.6,30.20,NNE,18,1.0,3.0,75,0.00,,,0.00,Wunderground v.1.15,2013-12-12 11:05:00,
2013-12-12 06:15:00,22.0,15.3,30.21,NW,319,1.0,1.0,75,0.00,,,0.00,Wunderground v.1.15,2013-12-12 11:15:00,
2013-12-12 06:25:00,21.6,14.6,30.22,NW,319,2.0,3.0,74,0.00,,,0.00,Wunderground v.1.15,2013-12-12 11:25:00,
2013-12-12 06:35:00,21.4,13.1,30.21,West,277,2.0,3.0,70,0.00,,,0.00,Wunderground v.1.15,2013-12-12 11:35:00,
2013-12-12 06:40:00,21.3,12.7,30.22,West,281,2.0,2.0,69,0.00,,,0.00,Wunderground v.1.15,2013-12-12 11:40:00,
2013-12-12 06:50:00,21.1,11.8,30.22,North,355,2.0,3.0,67,0.00,,,0.00,Wunderground v.1.15,2013-12-12 11:50:00,
2013-12-12 07:00:00,21.0,11.8,30.23,North,355,2.0,2.0,67,0.00,,,0.00,Wunderground v.1.15,2013-12-12 12:00:00,
2013-12-12 07:10:00,20.8,11.6,30.23,WSW,253,1.0,4.0,67,0.00,,,0.00,Wunderground v.1.15,2013-12-12 12:10:00,
2013-12-12 07:20:00,20.7,11.1,30.23,WNW,283,1.0,3.0,66,0.00,,,0.00,Wunderground v.1.15,2013-12-12 12:20:00,
2013-12-12 07:30:00,20.5,11.3,30.23,WNW,286,1.0,1.0,67,0.00,,,0.00,Wunderground v.1.15,2013-12-12 12:30:00,
2013-12-12 07:35:00,20.5,11.3,30.24,West,261,1.0,5.0,67,0.00,,,0.00,Wunderground v.1.15,2013-12-12 12:35:00,
2013-12-12 07:40:00,20.5,11.3,30.24,North,5,2.0,3.0,67,0.00,,,0.00,Wunderground v.1.15,2013-12-12 12:40:00,
2013-12-12 07:50:00,20.4,11.5,30.24,West,281,1.0,1.0,68,0.00,,,0.00,Wunderground v.1.15,2013-12-12 12:50:00,
2013-12-12 08:00:00,20.4,11.5,30.24,WNW,290,1.0,2.0,68,0.00,,,0.00,Wunderground v.1.15,2013-12-12 13:00:00,
2013-12-12 08:10:00,20.6,11.7,30.24,West,269,2.0,6.0,68,0.00,,,0.00,Wunderground v.1.15,2013-12-12 13:10:00,
2013-12-12 08:20:00,20.8,12.2,30.25,NNW,329,3.0,4.0,69,0.00,,,0.00,Wunderground v.1.15,2013-12-12 13:20:00,
2013-12-12 08:30:00,20.9,12.3,30.25,West,276,2.0,4.0,69,0.00,,,0.00,Wunderground v.1.15,2013-12-12 13:30:00,
2013-12-12 08:35:00,21.0,12.4,30.25,West,266,2.0,4.0,69,0.00,,,0.00,Wunderground v.1.15,2013-12-12 13:35:00,
2013-12-12 08:45:00,21.3,12.7,30.25,WSW,253,3.0,3.0,69,0.00,,,0.00,Wunderground v.1.15,2013-12-12 13:45:00,
2013-12-12 08:50:00,21.5,12.6,30.26,WNW,285,3.0,3.0,68,0.00,,,0.00,Wunderground v.1.15,2013-12-12 13:50:00,
2013-12-12 09:00:00,21.7,12.4,30.25,WNW,286,3.0,3.0,67,0.00,,,0.00,Wunderground v.1.15,2013-12-12 14:00:00,
2013-12-12 09:10:00,22.0,12.0,30.26,West,276,4.0,5.0,65,0.00,,,0.00,Wunderground v.1.15,2013-12-12 14:10:00,
2013-12-12 09:20:00,22.3,10.9,30.26,WNW,284,4.0,4.0,61,0.00,,,0.00,Wunderground v.1.15,2013-12-12 14:20:00,
2013-12-12 09:25:00,22.4,10.2,30.26,West,261,3.0,4.0,59,0.00,,,0.00,Wunderground v.1.15,2013-12-12 14:25:00,
2013-12-12 09:35:00,22.6,9.2,30.26,NNW,336,4.0,6.0,56,0.00,,,0.00,Wunderground v.1.15,2013-12-12 14:35:00,
2013-12-12 09:45:00,22.7,7.7,30.26,SW,223,4.0,5.0,52,0.00,,,0.00,Wunderground v.1.15,2013-12-12 14:45:00,
2013-12-12 09:50:00,22.7,7.3,30.26,North,5,4.0,4.0,51,0.00,,,0.00,Wunderground v.1.15,2013-12-12 14:50:00,
2013-12-12 09:55:00,22.7,7.7,30.26,NNW,329,4.0,4.0,52,0.00,,,0.00,Wunderground v.1.15,2013-12-12 14:55:00,
2013-12-12 10:05:00,23.0,7.1,30.26,West,275,3.0,5.0,50,0.00,,,0.00,Wunderground v.1.15,2013-12-12 15:05:00,
2013-12-12 10:10:00,23.1,7.2,30.26,West,280,3.0,3.0,50,0.00,,,0.00,Wunderground v.1.15,2013-12-12 15:10:00,
2013-12-12 10:20:00,23.4,6.6,30.26,NW,317,4.0,4.0,48,0.00,,,0.00,Wunderground v.1.15,2013-12-12 15:20:00,
2013-12-12 10:30:00,23.6,6.3,30.25,North,355,4.0,4.0,47,0.00,,,0.00,Wunderground v.1.15,2013-12-12 15:30:00,
2013-12-12 10:35:00,23.7,4.9,30.25,NNW,342,4.0,6.0,44,0.00,,,0.00,Wunderground v.1.15,2013-12-12 15:35:00,
2013-12-12 10:45:00,24.0,4.7,30.24,West,275,4.0,4.0,43,0.00,,,0.00,Wunderground v.1.15,2013-12-12 15:45:00,
2013-12-12 10:50:00,24.3,5.0,30.24,WNW,296,4.0,8.0,43,0.00,,,0.00,Wunderground v.1.15,2013-12-12 15:50:00,
2013-12-12 10:55:00,24.2,4.9,30.24,NNW,331,4.0,8.0,43,0.00,,,0.00,Wunderground v.1.15,2013-12-12 15:55:00,
2013-12-12 11:05:00,24.2,3.9,30.23,NNW,329,4.0,4.0,41,0.00,,,0.00,Wunderground v.1.15,2013-12-12 16:05:00,
2013-12-12 11:10:00,24.5,4.1,30.23,West,274,4.0,4.0,41,0.00,,,0.00,Wunderground v.1.15,2013-12-12 16:10:00,
2013-12-12 11:20:00,24.7,4.3,30.23,NNW,348,3.0,3.0,41,0.00,,,0.00,Wunderground v.1.15,2013-12-12 16:20:00,
2013-12-12 11:25:00,24.2,3.9,30.23,North,350,4.0,9.0,41,0.00,,,0.00,Wunderground v.1.15,2013-12-12 16:25:00,
2013-12-12 11:35:00,25.2,4.2,30.22,WNW,293,3.0,7.0,40,0.00,,,0.00,Wunderground v.1.15,2013-12-12 16:35:00,
2013-12-12 11:45:00,25.1,4.1,30.22,WNW,292,3.0,8.0,40,0.00,,,0.00,Wunderground v.1.15,2013-12-12 16:45:00,
2013-12-12 11:50:00,24.9,3.9,30.21,WNW,286,4.0,5.0,40,0.00,,,0.00,Wunderground v.1.15,2013-12-12 16:50:00,
2013-12-12 12:00:00,24.7,3.8,30.21,West,261,4.0,4.0,40,0.00,,,0.00,Wunderground v.1.15,2013-12-12 17:00:00,
2013-12-12 12:05:00,24.9,3.9,30.20,WNW,292,4.0,4.0,40,0.00,,,0.00,Wunderground v.1.15,2013-12-12 17:05:00,
2013-12-12 12:15:00,24.6,3.7,30.20,NNW,346,3.0,4.0,40,0.00,,,0.00,Wunderground v.1.15,2013-12-12 17:15:00,
2013-12-12 12:25:00,24.9,4.5,30.20,West,269,3.0,4.0,41,0.00,,,0.00,Wunderground v.1.15,2013-12-12 17:25:00,
2013-12-12 12:35:00,24.9,3.9,30.19,WNW,286,4.0,12.0,40,0.00,,,0.00,Wunderground v.1.15,2013-12-12 17:35:00,
2013-12-12 12:45:00,24.9,3.9,30.19,WNW,298,5.0,6.0,40,0.00,,,0.00,Wunderground v.1.15,2013-12-12 17:45:00,
2013-12-12 12:55:00,24.8,3.3,30.19,WNW,283,3.0,4.0,39,0.00,,,0.00,Wunderground v.1.15,2013-12-12 17:55:00,
2013-12-12 13:05:00,25.1,3.6,30.18,NNW,330,3.0,3.0,39,0.00,,,0.00,Wunderground v.1.15,2013-12-12 18:05:00,
2013-12-12 13:15:00,24.6,3.7,30.18,NW,319,4.0,7.0,40,0.00,,,0.00,Wunderground v.1.15,2013-12-12 18:15:00,
2013-12-12 13:20:00,24.8,3.9,30.18,NNW,338,3.0,3.0,40,0.00,,,0.00,Wunderground v.1.15,2013-12-12 18:20:00,
2013-12-12 13:30:00,24.9,3.4,30.18,North,360,3.0,3.0,39,0.00,,,0.00,Wunderground v.1.15,2013-12-12 18:30:00,
2013-12-12 13:35:00,24.8,3.3,30.17,West,271,3.0,4.0,39,0.00,,,0.00,Wunderground v.1.15,2013-12-12 18:35:00,
2013-12-12 13:45:00,25.0,4.0,30.17,West,272,3.0,6.0,40,0.00,,,0.00,Wunderground v.1.15,2013-12-12 18:45:00,
2013-12-12 13:50:00,25.1,3.0,30.17,West,266,3.0,3.0,38,0.00,,,0.00,Wunderground v.1.15,2013-12-12 18:50:00,
2013-12-12 14:00:00,24.8,2.7,30.17,North,349,3.0,3.0,38,0.00,,,0.00,Wunderground v.1.15,2013-12-12 19:00:00,
2013-12-12 14:10:00,24.8,3.3,30.17,West,268,2.0,2.0,39,0.00,,,0.00,Wunderground v.1.15,2013-12-12 19:10:00,
2013-12-12 14:20:00,25.0,3.5,30.18,West,280,3.0,4.0,39,0.00,,,0.00,Wunderground v.1.15,2013-12-12 19:20:00,
2013-12-12 14:30:00,25.1,3.0,30.17,NNW,339,3.0,7.0,38,0.00,,,0.00,Wunderground v.1.15,2013-12-12 19:30:00,
2013-12-12 14:35:00,25.2,3.1,30.18,North,355,3.0,7.0,38,0.00,,,0.00,Wunderground v.1.15,2013-12-12 19:35:00,
2013-12-12 14:40:00,25.2,3.1,30.18,West,278,3.0,3.0,38,0.00,,,0.00,Wunderground v.1.15,2013-12-12 19:40:00,
2013-12-12 14:50:00,25.0,4.0,30.18,West,263,3.0,3.0,40,0.00,,,0.00,Wunderground v.1.15,2013-12-12 19:50:00,
2013-12-12 15:00:00,24.9,4.5,30.18,WNW,298,2.0,2.0,41,0.00,,,0.00,Wunderground v.1.15,2013-12-12 20:00:00,
2013-12-12 15:05:00,24.8,4.4,30.18,West,267,3.0,3.0,41,0.00,,,0.00,Wunderground v.1.15,2013-12-12 20:05:00,
2013-12-12 15:15:00,24.5,3.6,30.18,WSW,244,2.0,3.0,40,0.00,,,0.00,Wunderground v.1.15,2013-12-12 20:15:00,
2013-12-12 15:20:00,24.5,3.6,30.18,WNW,298,2.0,5.0,40,0.00,,,0.00,Wunderground v.1.15,2013-12-12 20:20:00,
2013-12-12 15:30:00,24.5,3.6,30.18,West,265,2.0,2.0,40,0.00,,,0.00,Wunderground v.1.15,2013-12-12 20:30:00,
2013-12-12 15:35:00,24.4,4.0,30.18,West,275,2.0,2.0,41,0.00,,,0.00,Wunderground v.1.15,2013-12-12 20:35:00,
2013-12-12 15:45:00,24.2,3.9,30.18,SW,236,2.0,3.0,41,0.00,,,0.00,Wunderground v.1.15,2013-12-12 20:45:00,
2013-12-12 15:50:00,24.2,3.3,30.18,WSW,252,2.0,2.0,40,0.00,,,0.00,Wunderground v.1.15,2013-12-12 20:50:00,
2013-12-12 15:55:00,24.1,3.8,30.18,WNW,284,2.0,2.0,41,0.00,,,0.00,Wunderground v.1.15,2013-12-12 20:55:00,
2013-12-12 16:10:00,23.7,3.4,30.18,West,273,1.0,1.0,41,0.00,,,0.00,Wunderground v.1.15,2013-12-12 21:10:00,
2013-12-12 16:20:00,23.5,3.7,30.18,West,277,1.0,1.0,42,0.00,,,0.00,Wunderground v.1.15,2013-12-12 21:20:00,
2013-12-12 16:25:00,23.4,3.6,30.18,West,277,1.0,1.0,42,0.00,,,0.00,Wunderground v.1.15,2013-12-12 21:25:00,
2013-12-12 16:35:00,23.3,4.1,30.18,WSW,252,0.0,3.0,43,0.00,,,0.00,Wunderground v.1.15,2013-12-12 21:35:00,
2013-12-12 16:45:00,23.2,4.5,30.18,West,281,1.0,2.0,44,0.00,,,0.00,Wunderground v.1.15,2013-12-12 21:45:00,
2013-12-12 16:55:00,23.1,4.4,30.18,SW,214,1.0,1.0,44,0.00,,,0.00,Wunderground v.1.15,2013-12-12 21:55:00,
2013-12-12 17:05:00,22.9,4.7,30.18,WNW,296,1.0,1.0,45,0.00,,,0.00,Wunderground v.1.15,2013-12-12 22:05:00,
2013-12-12 17:15:00,22.6,4.4,30.18,West,281,1.0,2.0,45,0.00,,,0.00,Wunderground v.1.15,2013-12-12 22:15:00,
2013-12-12 17:20:00,22.5,4.3,30.18,WNW,296,1.0,3.0,45,0.00,,,0.00,Wunderground v.1.15,2013-12-12 22:20:00,
2013-12-12 17:30:00,22.4,4.2,30.18,West,268,1.0,1.0,45,0.00,,,0.00,Wunderground v.1.15,2013-12-12 22:30:00,
2013-12-12 17:40:00,22.2,4.1,30.18,WNW,296,1.0,1.0,45,0.00,,,0.00,Wunderground v.1.15,2013-12-12 22:40:00,
2013-12-12 17:50:00,22.0,4.3,30.18,WNW,303,1.0,1.0,46,0.00,,,0.00,Wunderground v.1.15,2013-12-12 22:50:00,
2013-12-12 18:00:00,22.0,4.3,30.18,West,263,1.0,1.0,46,0.00,,,0.00,Wunderground v.1.15,2013-12-12 23:00:00,
2013-12-12 18:10:00,21.9,4.7,30.18,West,276,2.0,2.0,47,0.00,,,0.00,Wunderground v.1.15,2013-12-12 23:10:00,
2013-12-12 18:20:00,21.8,5.1,30.18,WNW,288,1.0,1.0,48,0.00,,,0.00,Wunderground v.1.15,2013-12-12 23:20:00,
2013-12-12 18:30:00,21.6,4.9,30.18,West,269,1.0,1.0,48,0.00,,,0.00,Wunderground v.1.15,2013-12-12 23:30:00,
2013-12-12 18:40:00,21.4,4.7,30.18,West,273,2.0,2.0,48,0.00,,,0.00,Wunderground v.1.15,2013-12-12 23:40:00,
2013-12-12 18:50:00,21.2,5.0,30.19,WSW,243,1.0,1.0,49,0.00,,,0.00,Wunderground v.1.15,2013-12-12 23:50:00,
2013-12-12 19:00:00,20.9,5.2,30.18,West,270,1.0,1.0,50,0.00,,,0.00,Wunderground v.1.15,2013-12-13 00:00:00,
2013-12-12 19:05:00,20.9,5.2,30.18,WNW,288,1.0,1.0,50,0.00,,,0.00,Wunderground v.1.15,2013-12-13 00:05:00,
2013-12-12 19:15:00,20.8,5.1,30.18,NW,306,1.0,1.0,50,0.00,,,0.00,Wunderground v.1.15,2013-12-13 00:15:00,
2013-12-12 19:20:00,20.7,5.0,30.19,SW,236,1.0,2.0,50,0.00,,,0.00,Wunderground v.1.15,2013-12-13 00:20:00,
2013-12-12 19:25:00,20.7,5.4,30.19,WSW,248,1.0,3.0,51,0.00,,,0.00,Wunderground v.1.15,2013-12-13 00:25:00,
2013-12-12 19:35:00,20.7,5.8,30.19,West,281,1.0,1.0,52,0.00,,,0.00,Wunderground v.1.15,2013-12-13 00:35:00,
2013-12-12 19:40:00,20.6,5.7,30.18,NW,309,1.0,1.0,52,0.00,,,0.00,Wunderground v.1.15,2013-12-13 00:40:00,
2013-12-12 19:50:00,20.5,6.1,30.18,WNW,286,1.0,1.0,53,0.00,,,0.00,Wunderground v.1.15,2013-12-13 00:50:00,
2013-12-12 20:00:00,20.3,5.9,30.18,WNW,286,0.0,1.0,53,0.00,,,0.00,Wunderground v.1.15,2013-12-13 01:00:00,
2013-12-12 20:05:00,20.2,6.2,30.17,WNW,286,1.0,1.0,54,0.00,,,0.00,Wunderground v.1.15,2013-12-13 01:05:00,
2013-12-12 20:15:00,20.0,6.0,30.17,SW,229,1.0,1.0,54,0.00,,,0.00,Wunderground v.1.15,2013-12-13 01:15:00,
2013-12-12 20:20:00,19.9,5.9,30.17,SW,229,0.0,0.0,54,0.00,,,0.00,Wunderground v.1.15,2013-12-13 01:20:00,
2013-12-12 20:25:00,19.8,6.2,30.17,SW,229,0.0,0.0,55,0.00,,,0.00,Wunderground v.1.15,2013-12-13 01:25:00,
2013-12-12 20:35:00,19.5,6.3,30.16,SW,229,0.0,2.0,56,0.00,,,0.00,Wunderground v.1.15,2013-12-13 01:35:00,
2013-12-12 20:45:00,19.3,6.5,30.16,SW,229,0.0,0.0,57,0.00,,,0.00,Wunderground v.1.15,2013-12-13 01:45:00,
2013-12-12 20:55:00,19.1,6.7,30.15,SSW,196,0.0,0.0,58,0.00,,,0.00,Wunderground v.1.15,2013-12-13 01:55:00,
2013-12-12 21:15:00,18.8,6.8,30.14,SSW,204,0.0,0.0,59,0.00,,,0.00,Wunderground v.1.15,2013-12-13 02:15:00,
2013-12-12 21:25:00,18.5,6.5,30.13,SSW,205,0.0,0.0,59,0.00,,,0.00,Wunderground v.1.15,2013-12-13 02:25:00,
2013-12-12 21:35:00,18.2,6.6,30.13,SSW,203,1.0,1.0,60,0.00,,,0.00,Wunderground v.1.15,2013-12-13 02:35:00,
2013-12-12 21:45:00,18.0,6.4,30.13,SSW,202,0.0,0.0,60,0.00,,,0.00,Wunderground v.1.15,2013-12-13 02:45:00,
2013-12-12 21:50:00,17.9,6.7,30.13,SSW,203,1.0,1.0,61,0.00,,,0.00,Wunderground v.1.15,2013-12-13 02:50:00,
2013-12-12 22:00:00,17.6,6.8,30.12,SSW,206,1.0,1.0,62,0.00,,,0.00,Wunderground v.1.15,2013-12-13 03:00:00,
2013-12-12 22:05:00,17.5,7.0,30.12,SSW,206,1.0,1.0,63,0.00,,,0.00,Wunderground v.1.15,2013-12-13 03:05:00,
2013-12-12 22:15:00,17.3,6.8,30.12,SSW,201,1.0,2.0,63,0.00,,,0.00,Wunderground v.1.15,2013-12-13 03:15:00,
2013-12-12 22:20:00,17.2,7.1,30.11,SSW,202,1.0,1.0,64,0.00,,,0.00,Wunderground v.1.15,2013-12-13 03:20:00,
2013-12-12 22:30:00,17.1,7.0,30.11,SSW,202,1.0,3.0,64,0.00,,,0.00,Wunderground v.1.15,2013-12-13 03:30:00,
2013-12-12 22:35:00,17.0,6.9,30.10,South,182,1.0,3.0,64,0.00,,,0.00,Wunderground v.1.15,2013-12-13 03:35:00,
2013-12-12 22:45:00,16.8,7.1,30.10,SW,216,1.0,3.0,65,0.00,,,0.00,Wunderground v.1.15,2013-12-13 03:45:00,
2013-12-12 22:50:00,16.8,7.1,30.09,WSW,242,1.0,1.0,65,0.00,,,0.00,Wunderground v.1.15,2013-12-13 03:50:00,
2013-12-12 23:00:00,16.7,7.3,30.09,SW,231,1.0,2.0,66,0.00,,,0.00,Wunderground v.1.15,2013-12-13 04:00:00,
2013-12-12 23:10:00,16.6,7.2,30.09,WSW,244,1.0,1.0,66,0.00,,,0.00,Wunderground v.1.15,2013-12-13 04:10:00,
2013-12-12 23:20:00,16.7,7.3,30.09,SW,223,1.0,2.0,66,0.00,,,0.00,Wunderground v.1.15,2013-12-13 04:20:00,
2013-12-12 23:30:00,16.7,7.0,30.08,SW,215,2.0,2.0,65,0.00,,,0.00,Wunderground v.1.15,2013-12-13 04:30:00,
2013-12-12 23:35:00,16.6,7.2,30.07,SW,225,1.0,2.0,66,0.00,,,0.00,Wunderground v.1.15,2013-12-13 04:35:00,
2013-12-12 23:45:00,16.6,7.2,30.07,SW,219,1.0,1.0,66,0.00,,,0.00,Wunderground v.1.15,2013-12-13 04:45:00,
2013-12-12 23:50:00,16.6,7.2,30.06,WSW,247,1.0,1.0,66,0.00,,,0.00,Wunderground v.1.15,2013-12-13 04:50:00,
2013-12-12 23:55:00,16.5,7.4,30.06,WSW,254,1.0,2.0,67,0.00,,,0.00,Wunderground v.1.15,2013-12-13 04:55:00,